createdAt,value
2019-05-21T00:01:22.837Z,100778.56
2019-05-21T00:04:00.799Z,100781.20
2019-05-21T00:06:38.323Z,100781.59
2019-05-21T00:09:16.924Z,100767.90
2019-05-21T00:11:54.591Z,100798.59
2019-05-21T00:14:32.302Z,100798.98
2019-05-21T00:17:09.740Z,100806.05
2019-05-21T00:19:48.235Z,100813.44
2019-05-21T00:22:26.741Z,100809.46
2019-05-21T00:25:04.148Z,100816.35
2019-05-21T00:27:41.542Z,100816.45
2019-05-21T00:30:52.851Z,100819.52
2019-05-21T00:34:03.692Z,100822.37
2019-05-21T00:37:16.545Z,100821.53
2019-05-21T00:40:27.571Z,100822.55
2019-05-21T00:43:06.306Z,100818.02
2019-05-21T00:45:43.673Z,100818.56
2019-05-21T00:48:21.196Z,100830.69
2019-05-21T00:50:58.434Z,100835.73
2019-05-21T00:53:37.789Z,100831.51
2019-05-21T00:56:15.118Z,100841.56
2019-05-21T00:58:55.114Z,100835.78
2019-05-21T01:01:32.885Z,100838.25
2019-05-21T01:04:11.862Z,100839.86
2019-05-21T01:06:49.356Z,100835.48
2019-05-21T01:09:27.853Z,100836.08
2019-05-21T01:12:05.127Z,100843.08
2019-05-21T01:14:43.524Z,100835.59
2019-05-21T01:17:21.098Z,100848.78
2019-05-21T01:19:58.394Z,100851.11
2019-05-21T01:22:35.460Z,100851.10
2019-05-21T01:25:15.475Z,100854.90
2019-05-21T01:27:52.466Z,100849.22
2019-05-21T01:30:30.069Z,100844.11
2019-05-21T01:33:08.250Z,100844.73
2019-05-21T01:35:46.264Z,100851.73
2019-05-21T01:38:23.518Z,100856.05
2019-05-21T01:41:00.559Z,100845.29
2019-05-21T01:43:38.420Z,100845.55
2019-05-21T01:46:16.302Z,100851.95
2019-05-21T01:48:53.439Z,100851.38
2019-05-21T01:51:31.501Z,100848.19
2019-05-21T01:54:10.229Z,100848.38
2019-05-21T01:56:50.539Z,100842.17
2019-05-21T01:59:28.662Z,100844.45
2019-05-21T02:02:06.095Z,100846.98
2019-05-21T02:04:43.600Z,100846.77
2019-05-21T02:07:21.400Z,100851.48
2019-05-21T02:09:59.487Z,100845.70
2019-05-21T02:12:37.631Z,100848.45
2019-05-21T02:15:14.815Z,100842.00
2019-05-21T02:17:52.613Z,100847.80
2019-05-21T02:20:29.376Z,100851.75
2019-05-21T02:23:06.907Z,100846.80
2019-05-21T02:25:45.051Z,100844.62
2019-05-21T02:28:24.334Z,100846.25
2019-05-21T02:31:01.855Z,100846.95
2019-05-21T02:33:39.106Z,100834.42
2019-05-21T02:36:16.600Z,100835.82
2019-05-21T02:38:55.272Z,100828.89
2019-05-21T02:41:32.282Z,100826.64
2019-05-21T02:44:10.818Z,100826.64
2019-05-21T02:46:48.929Z,100841.16
2019-05-21T02:49:27.325Z,100837.80
2019-05-21T02:52:04.703Z,100839.77
2019-05-21T02:54:42.281Z,100839.44
2019-05-21T02:57:19.606Z,100839.93
2019-05-21T03:00:01.059Z,100835.47
2019-05-21T03:02:41.056Z,100827.45
2019-05-21T03:05:18.512Z,100823.22
2019-05-21T03:07:55.912Z,100818.05
2019-05-21T03:10:33.830Z,100815.86
2019-05-21T03:13:11.631Z,100816.48
2019-05-21T03:15:49.519Z,100814.84
2019-05-21T03:18:27.307Z,100816.42
2019-05-21T03:21:05.645Z,100807.20
2019-05-21T03:23:43.293Z,100811.97
2019-05-21T03:26:21.013Z,100810.98
2019-05-21T03:28:58.662Z,100803.64
2019-05-21T03:31:37.787Z,100810.58
2019-05-21T03:34:15.558Z,100805.59
2019-05-21T03:36:53.371Z,100808.14
2019-05-21T03:39:30.536Z,100809.07
2019-05-21T03:42:08.302Z,100812.49
2019-05-21T03:44:58.805Z,100807.41
2019-05-21T03:47:25.506Z,100805.20
2019-05-21T03:50:02.891Z,100799.65
2019-05-21T03:52:41.336Z,100799.69
2019-05-21T03:55:19.335Z,100791.59
2019-05-21T03:57:56.845Z,100783.89
2019-05-21T04:00:34.463Z,100785.77
2019-05-21T04:03:13.602Z,100789.73
2019-05-21T04:05:51.397Z,100794.27
2019-05-21T04:08:29.240Z,100782.40
2019-05-21T04:11:06.112Z,100778.57
2019-05-21T04:13:43.510Z,100777.48
2019-05-21T04:16:54.691Z,100782.06
2019-05-21T04:19:35.999Z,100782.23
2019-05-21T04:22:18.177Z,100773.39
2019-05-21T04:24:56.294Z,100770.38
2019-05-21T04:27:33.580Z,100761.70
2019-05-21T04:30:12.073Z,100754.66
2019-05-21T04:32:49.745Z,100754.86
2019-05-21T04:35:28.855Z,100757.98
2019-05-21T04:38:06.121Z,100760.38
2019-05-21T04:40:44.964Z,100755.25
2019-05-21T04:43:22.296Z,100751.31
2019-05-21T04:46:00.892Z,100751.16
2019-05-21T04:48:38.063Z,100753.94
2019-05-21T04:51:15.420Z,100758.75
2019-05-21T04:53:53.423Z,100748.66
2019-05-21T04:56:31.346Z,100750.11
2019-05-21T04:59:09.208Z,100749.75
2019-05-21T05:01:46.477Z,100741.03
2019-05-21T05:04:24.211Z,100734.89
2019-05-21T05:07:03.332Z,100728.89
2019-05-21T05:09:40.584Z,100726.14
2019-05-21T05:12:18.108Z,100720.98
2019-05-21T05:14:55.675Z,100711.73
2019-05-21T05:17:33.649Z,100714.91
2019-05-21T05:20:11.123Z,100708.28
2019-05-21T05:22:49.107Z,100707.99
2019-05-21T05:25:26.458Z,100701.16
2019-05-21T05:28:04.098Z,100695.84
2019-05-21T05:30:41.389Z,100688.46
2019-05-21T05:33:20.488Z,100695.57
2019-05-21T05:35:57.591Z,100690.72
2019-05-21T05:38:38.086Z,100690.58
2019-05-21T05:41:15.443Z,100681.43
2019-05-21T05:43:52.867Z,100688.34
2019-05-21T05:46:31.197Z,100673.73
2019-05-21T05:49:20.365Z,100673.50
2019-05-21T05:51:58.788Z,100665.42
2019-05-21T05:54:36.536Z,100662.14
2019-05-21T05:57:14.193Z,100661.38
2019-05-21T05:59:52.889Z,100663.56
2019-05-21T06:02:30.135Z,100651.41
2019-05-21T06:05:07.890Z,100641.03
2019-05-21T06:07:58.754Z,100642.09
2019-05-21T06:10:25.998Z,100633.67
2019-05-21T06:13:03.861Z,100621.79
2019-05-21T06:15:41.671Z,100613.51
2019-05-21T06:18:18.879Z,100616.95
2019-05-21T06:20:56.557Z,100602.19
2019-05-21T06:23:34.113Z,100615.01
2019-05-21T06:26:11.593Z,100605.89
2019-05-21T06:28:48.883Z,100598.03
2019-05-21T06:31:26.800Z,100597.44
2019-05-21T06:34:04.145Z,100603.99
2019-05-21T06:36:41.734Z,100589.44
2019-05-21T06:39:38.769Z,100592.63
2019-05-21T06:42:19.823Z,100595.47
2019-05-21T06:44:57.121Z,100592.72
2019-05-21T06:47:35.976Z,100586.29
2019-05-21T06:50:13.437Z,100584.66
2019-05-21T06:52:51.451Z,100585.17
2019-05-21T06:55:28.911Z,100588.02
2019-05-21T06:58:07.633Z,100578.70
2019-05-21T07:00:45.143Z,100567.25
2019-05-21T07:03:22.776Z,100565.00
2019-05-21T07:05:59.923Z,100553.71
2019-05-21T07:08:37.435Z,100544.22
2019-05-21T07:11:15.090Z,100534.12
2019-05-21T07:13:54.394Z,100529.06
2019-05-21T07:16:31.824Z,100530.05
2019-05-21T07:19:09.203Z,100521.43
2019-05-21T07:21:47.602Z,100519.95
2019-05-21T07:24:28.191Z,100516.92
2019-05-21T07:27:04.783Z,100506.91
2019-05-21T07:29:42.383Z,100492.53
2019-05-21T07:32:19.577Z,100487.59
2019-05-21T07:34:57.441Z,100486.48
2019-05-21T07:37:34.912Z,100489.14
2019-05-21T07:40:12.781Z,100495.41
2019-05-21T07:42:50.240Z,100499.89
2019-05-21T07:45:29.690Z,100499.30
2019-05-21T07:48:07.644Z,100475.77
2019-05-21T07:50:45.285Z,100470.91
2019-05-21T07:53:23.072Z,100461.36
2019-05-21T07:56:01.232Z,100457.03
2019-05-21T07:58:38.652Z,100458.66
2019-05-21T08:01:16.033Z,100469.38
2019-05-21T08:03:53.701Z,100473.92
2019-05-21T08:06:31.567Z,100473.02
2019-05-21T08:09:13.959Z,100473.08
2019-05-21T08:11:48.331Z,100465.33
2019-05-21T08:14:25.673Z,100454.47
2019-05-21T08:17:04.197Z,100437.50
2019-05-21T08:19:42.915Z,100424.02
2019-05-21T08:22:21.526Z,100426.36
2019-05-21T08:24:59.440Z,100425.22
2019-05-21T08:27:37.317Z,100431.28
2019-05-21T08:30:15.214Z,100426.89
2019-05-21T08:32:52.523Z,100415.03
2019-05-21T08:35:30.723Z,100413.81
2019-05-21T08:38:08.422Z,100411.89
2019-05-21T08:40:46.903Z,100401.47
2019-05-21T08:43:24.302Z,100391.25
2019-05-21T08:46:01.979Z,100387.53
2019-05-21T08:48:39.128Z,100390.02
2019-05-21T08:51:19.482Z,100391.57
2019-05-21T08:53:57.724Z,100381.23
2019-05-21T08:56:35.433Z,100395.91
2019-05-21T08:59:12.903Z,100404.62
2019-05-21T09:01:50.994Z,100410.24
2019-05-21T09:04:45.284Z,100411.09
2019-05-21T09:07:07.340Z,100398.60
2019-05-21T09:09:50.004Z,100391.64
2019-05-21T09:12:24.081Z,100383.88
2019-05-21T09:15:01.525Z,100378.69
2019-05-21T09:17:39.149Z,100383.70
2019-05-21T09:20:17.150Z,100377.19
2019-05-21T09:22:54.801Z,100381.75
2019-05-21T09:25:32.681Z,100365.73
2019-05-21T09:28:10.544Z,100366.59
2019-05-21T09:30:48.168Z,100363.26
2019-05-21T09:33:25.707Z,100364.86
2019-05-21T09:36:03.732Z,100359.92
2019-05-21T09:38:41.309Z,100357.69
2019-05-21T09:41:19.009Z,100360.05
2019-05-21T09:43:57.607Z,100345.27
2019-05-21T09:46:35.336Z,100369.96
2019-05-21T09:49:13.379Z,100369.53
2019-05-21T09:51:51.718Z,100373.73
2019-05-21T09:54:29.343Z,100382.28
2019-05-21T09:57:09.978Z,100378.80
2019-05-21T10:00:03.368Z,100385.28
2019-05-21T10:02:42.224Z,100381.38
2019-05-21T10:05:20.794Z,100385.66
2019-05-21T10:07:58.306Z,100385.42
2019-05-21T10:10:37.586Z,100391.95
2019-05-21T10:13:15.168Z,100395.02
2019-05-21T10:15:54.188Z,100407.22
2019-05-21T10:18:31.429Z,100408.19
2019-05-21T10:21:11.354Z,100415.67
2019-05-21T10:23:48.961Z,100419.44
2019-05-21T10:26:27.196Z,100431.52
2019-05-21T10:29:05.566Z,100439.55
2019-05-21T10:31:43.314Z,100439.42
2019-05-21T10:34:20.867Z,100438.84
2019-05-21T10:36:59.213Z,100435.05
2019-05-21T10:39:36.730Z,100440.30
2019-05-21T10:42:15.205Z,100444.76
2019-05-21T10:44:52.627Z,100444.47
2019-05-21T10:47:31.636Z,100451.61
2019-05-21T10:50:08.857Z,100453.55
2019-05-21T10:52:46.297Z,100450.11
2019-05-21T10:55:23.638Z,100457.13
2019-05-21T10:58:01.690Z,100466.14
2019-05-21T11:00:40.268Z,100468.55
2019-05-21T11:03:21.851Z,100466.84
2019-05-21T11:06:09.762Z,100466.36
2019-05-21T11:08:38.780Z,100468.61
2019-05-21T11:11:20.909Z,100475.41
2019-05-21T11:13:56.125Z,100476.12
2019-05-21T11:16:33.516Z,100481.42
2019-05-21T11:19:11.208Z,100484.44
2019-05-21T11:21:48.920Z,100490.14
2019-05-21T11:24:26.652Z,100486.91
2019-05-21T11:27:04.801Z,100488.00
2019-05-21T11:29:43.662Z,100489.70
2019-05-21T11:32:22.191Z,100489.43
2019-05-21T11:34:59.957Z,100488.72
2019-05-21T11:37:39.054Z,100496.72
2019-05-21T11:40:16.959Z,100500.31
2019-05-21T11:42:54.201Z,100508.20
2019-05-21T11:45:33.078Z,100509.37
2019-05-21T11:48:10.679Z,100518.59
2019-05-21T11:50:48.795Z,100512.41
2019-05-21T11:53:25.983Z,100522.68
2019-05-21T11:56:03.314Z,100516.96
2019-05-21T11:58:40.685Z,100519.95
2019-05-21T12:01:18.794Z,100519.38
2019-05-21T12:03:57.637Z,100534.00
2019-05-21T12:06:35.160Z,100534.16
2019-05-21T12:09:12.598Z,100538.56
2019-05-21T12:11:50.694Z,100544.19
2019-05-21T12:14:28.395Z,100555.42
2019-05-21T12:17:05.957Z,100552.64
2019-05-21T12:19:43.137Z,100550.67
2019-05-21T12:22:20.765Z,100556.05
2019-05-21T12:24:58.041Z,100562.52
2019-05-21T12:27:35.772Z,100580.10
2019-05-21T12:30:13.069Z,100590.23
2019-05-21T12:32:50.863Z,100604.76
2019-05-21T12:35:29.301Z,100603.92
2019-05-21T12:38:07.272Z,100600.73
2019-05-21T12:40:44.225Z,100595.96
2019-05-21T12:43:23.952Z,100597.42
2019-05-21T12:46:01.516Z,100610.64
2019-05-21T12:48:39.537Z,100615.64
2019-05-21T12:51:16.915Z,100615.52
2019-05-21T12:53:55.301Z,100614.91
2019-05-21T12:56:32.703Z,100617.22
2019-05-21T12:59:10.311Z,100613.55
2019-05-21T13:01:48.071Z,100613.33
2019-05-21T13:04:26.505Z,100621.38
2019-05-21T13:07:05.556Z,100639.27
2019-05-21T13:09:42.842Z,100644.26
2019-05-21T13:12:20.017Z,100646.53
2019-05-21T13:14:57.357Z,100646.03
2019-05-21T13:17:34.932Z,100646.64
2019-05-21T13:20:12.347Z,100642.23
2019-05-21T13:22:50.369Z,100639.31
2019-05-21T13:25:29.463Z,100631.02
2019-05-21T13:28:06.959Z,100626.66
2019-05-21T13:30:44.466Z,100639.97
2019-05-21T13:33:22.065Z,100648.62
2019-05-21T13:36:00.181Z,100654.13
2019-05-21T13:38:39.163Z,100647.86
2019-05-21T13:41:16.663Z,100656.94
2019-05-21T13:43:53.992Z,100672.94
2019-05-21T13:46:35.426Z,100680.14
2019-05-21T13:49:10.881Z,100679.98
2019-05-21T13:51:48.210Z,100671.55
2019-05-21T13:54:25.811Z,100678.08
2019-05-21T13:57:04.349Z,100682.05
2019-05-21T13:59:41.592Z,100681.19
2019-05-21T14:02:19.898Z,100686.31
2019-05-21T14:04:57.417Z,100678.39
2019-05-21T14:07:35.848Z,100686.80
2019-05-21T14:10:19.200Z,100682.78
2019-05-21T14:12:53.412Z,100684.74
2019-05-21T14:15:30.650Z,100697.98
2019-05-21T14:18:08.903Z,100706.48
2019-05-21T14:20:46.431Z,100704.32
2019-05-21T14:23:23.679Z,100707.38
2019-05-21T14:26:00.822Z,100716.73
2019-05-21T14:28:39.815Z,100728.84
2019-05-21T14:31:16.689Z,100740.92
2019-05-21T14:33:54.301Z,100743.83
2019-05-21T14:36:31.750Z,100748.74
2019-05-21T14:39:15.411Z,100747.62
2019-05-21T14:41:54.076Z,100751.05
2019-05-21T14:44:31.609Z,100753.33
2019-05-21T14:47:09.110Z,100765.70
2019-05-21T14:49:47.442Z,100768.23
2019-05-21T14:52:24.933Z,100774.98
2019-05-21T14:55:03.283Z,100784.59
2019-05-21T14:57:42.141Z,100797.92
2019-05-21T15:00:27.660Z,100799.87
2019-05-21T15:03:05.226Z,100809.65
2019-05-21T15:05:42.380Z,100813.77
2019-05-21T15:08:19.456Z,100801.46
2019-05-21T15:10:57.931Z,100797.41
2019-05-21T15:13:36.522Z,100800.03
2019-05-21T15:16:14.057Z,100806.13
2019-05-21T15:18:52.586Z,100808.27
2019-05-21T15:21:39.530Z,100819.36
2019-05-21T15:24:17.549Z,100810.23
2019-05-21T15:26:55.932Z,100807.03
2019-05-21T15:29:33.526Z,100811.56
2019-05-21T15:32:11.998Z,100806.58
2019-05-21T15:34:49.334Z,100806.47
2019-05-21T15:37:26.831Z,100811.59
2019-05-21T15:40:04.448Z,100821.44
2019-05-21T15:42:42.835Z,100807.03
2019-05-21T15:45:21.230Z,100803.02
2019-05-21T15:47:58.397Z,100811.55
2019-05-21T15:50:35.559Z,100809.25
2019-05-21T15:53:13.501Z,100807.63
2019-05-21T15:55:50.543Z,100801.20
2019-05-21T15:58:27.743Z,100809.23
2019-05-21T16:01:05.314Z,100821.81
2019-05-21T16:03:43.689Z,100825.44
2019-05-21T16:06:20.989Z,100831.30
2019-05-21T16:08:58.094Z,100839.16
2019-05-21T16:11:35.630Z,100832.33
2019-05-21T16:14:13.621Z,100836.88
2019-05-21T16:16:52.076Z,100837.37
2019-05-21T16:19:29.692Z,100848.96
2019-05-21T16:22:07.342Z,100849.34
2019-05-21T16:24:46.658Z,100860.77
2019-05-21T16:27:24.568Z,100870.03
2019-05-21T16:30:02.143Z,100863.14
2019-05-21T16:32:39.308Z,100861.64
2019-05-21T16:35:17.754Z,100863.72
2019-05-21T16:37:55.309Z,100842.03
2019-05-21T16:40:32.914Z,100856.91
2019-05-21T16:43:10.079Z,100855.58
2019-05-21T16:45:48.280Z,100857.25
2019-05-21T16:48:26.984Z,100846.17
2019-05-21T16:51:04.703Z,100833.39
2019-05-21T16:53:42.173Z,100834.59
2019-05-21T16:56:20.861Z,100841.34
2019-05-21T16:58:57.972Z,100842.80
2019-05-21T17:01:35.147Z,100848.91
2019-05-21T17:04:12.477Z,100848.70
2019-05-21T17:06:53.472Z,100854.47
2019-05-21T17:09:30.968Z,100853.24
2019-05-21T17:12:09.034Z,100852.89
2019-05-21T17:14:49.852Z,100839.38
2019-05-21T17:17:27.075Z,100834.59
2019-05-21T17:20:05.937Z,100841.17
2019-05-21T17:22:44.152Z,100852.03
2019-05-21T17:25:22.039Z,100851.81
2019-05-21T17:28:01.116Z,100814.25
2019-05-21T17:30:38.751Z,100835.02
2019-05-21T17:33:16.514Z,100830.98
2019-05-21T17:35:54.014Z,100823.42
2019-05-21T17:38:31.916Z,100831.03
2019-05-21T17:41:09.315Z,100831.34
2019-05-21T17:43:47.134Z,100826.45
2019-05-21T17:46:24.946Z,100822.98
2019-05-21T17:49:03.246Z,100814.15
2019-05-21T17:51:41.106Z,100824.15
2019-05-21T17:54:18.507Z,100821.68
2019-05-21T17:56:55.895Z,100833.93
2019-05-21T17:59:33.813Z,100846.34
2019-05-21T18:02:12.681Z,100854.72
2019-05-21T18:04:51.201Z,100859.33
2019-05-21T18:07:29.010Z,100852.94
2019-05-21T18:10:07.715Z,100845.05
2019-05-21T18:12:45.555Z,100849.44
2019-05-21T18:15:22.841Z,100855.78
2019-05-21T18:18:00.433Z,100865.77
2019-05-21T18:20:39.026Z,100875.69
2019-05-21T18:23:17.614Z,100887.14
2019-05-21T18:25:55.786Z,100873.50
2019-05-21T18:28:33.293Z,100852.12
2019-05-21T18:31:11.473Z,100842.26
2019-05-21T18:33:49.555Z,100845.25
2019-05-21T18:36:27.183Z,100843.42
2019-05-21T18:39:05.923Z,100845.63
2019-05-21T18:41:43.919Z,100838.13
2019-05-21T18:44:21.395Z,100836.65
2019-05-21T18:46:59.232Z,100826.91
2019-05-21T18:49:36.821Z,100812.00
2019-05-21T18:52:14.608Z,100808.56
2019-05-21T18:54:53.613Z,100810.70
2019-05-21T18:57:31.345Z,100805.98
2019-05-21T19:00:09.965Z,100803.42
2019-05-21T19:02:49.858Z,100789.77
2019-05-21T19:05:26.970Z,100786.95
2019-05-21T19:08:04.743Z,100776.52
2019-05-21T19:10:42.063Z,100766.64
2019-05-21T19:13:20.600Z,100753.59
2019-05-21T19:15:58.215Z,100742.83
2019-05-21T19:18:36.057Z,100737.60
2019-05-21T19:21:13.658Z,100743.74
2019-05-21T19:23:50.986Z,100743.26
2019-05-21T19:26:29.928Z,100739.09
2019-05-21T19:29:07.998Z,100734.14
2019-05-21T19:31:45.512Z,100734.56
2019-05-21T19:34:23.494Z,100712.84
2019-05-21T19:37:02.687Z,100731.97
2019-05-21T19:39:40.986Z,100727.17
2019-05-21T19:42:18.289Z,100726.05
2019-05-21T19:44:56.289Z,100725.59
2019-05-21T19:47:34.389Z,100723.06
2019-05-21T19:50:13.252Z,100722.95
2019-05-21T19:52:50.474Z,100728.66
2019-05-21T19:55:29.987Z,100727.99
2019-05-21T19:58:08.207Z,100733.95
2019-05-21T20:00:56.105Z,100733.58
2019-05-21T20:03:33.422Z,100733.66
2019-05-21T20:06:13.325Z,100738.28
2019-05-21T20:08:51.158Z,100730.29
2019-05-21T20:11:29.252Z,100727.08
2019-05-21T20:14:06.513Z,100729.69
2019-05-21T20:16:45.165Z,100729.77
2019-05-21T20:19:24.036Z,100738.23
2019-05-21T20:22:01.660Z,100739.51
2019-05-21T20:24:39.763Z,100734.29
2019-05-21T20:27:19.787Z,100740.25
2019-05-21T20:30:12.311Z,100740.14
2019-05-21T20:32:39.968Z,100735.25
2019-05-21T20:35:19.391Z,100735.82
2019-05-21T20:37:58.855Z,100745.54
2019-05-21T20:40:37.532Z,100738.66
2019-05-21T20:43:15.168Z,100738.60
2019-05-21T20:45:54.141Z,100737.38
2019-05-21T20:48:34.016Z,100736.08
2019-05-21T20:51:13.013Z,100741.56
2019-05-21T20:53:50.895Z,100740.77
2019-05-21T20:56:28.361Z,100739.95
2019-05-21T20:59:06.055Z,100746.88
2019-05-21T21:01:44.448Z,100746.89
2019-05-21T21:04:22.147Z,100734.70
2019-05-21T21:06:59.819Z,100735.55
2019-05-21T21:09:38.833Z,100731.41
2019-05-21T21:12:16.098Z,100732.60
2019-05-21T21:14:54.476Z,100726.39
2019-05-21T21:17:31.717Z,100729.07
2019-05-21T21:20:10.354Z,100727.03
2019-05-21T21:22:48.167Z,100733.73
2019-05-21T21:25:26.968Z,100736.09
2019-05-21T21:28:04.853Z,100740.55
2019-05-21T21:30:43.969Z,100740.11
2019-05-21T21:33:22.300Z,100745.36
2019-05-21T21:36:00.349Z,100748.96
2019-05-21T21:38:39.872Z,100751.60
2019-05-21T21:41:19.175Z,100759.23
2019-05-21T21:43:56.895Z,100754.97
2019-05-21T21:46:34.599Z,100764.75
2019-05-21T21:49:13.920Z,100767.19
2019-05-21T21:51:52.302Z,100765.34
2019-05-21T21:54:29.731Z,100768.73
2019-05-21T21:57:07.070Z,100782.08
2019-05-21T21:59:44.024Z,100792.26
2019-05-21T22:02:33.725Z,100794.23
2019-05-21T22:05:12.926Z,100796.37
2019-05-21T22:07:50.889Z,100778.84
2019-05-21T22:10:28.598Z,100764.02
2019-05-21T22:13:07.558Z,100756.39
2019-05-21T22:15:45.075Z,100745.17
2019-05-21T22:18:24.147Z,100729.13
2019-05-21T22:21:02.287Z,100711.49
2019-05-21T22:23:40.064Z,100703.62
2019-05-21T22:26:17.455Z,100702.69
2019-05-21T22:28:55.708Z,100702.42
2019-05-21T22:31:33.131Z,100705.59
2019-05-21T22:34:10.690Z,100707.41
2019-05-21T22:36:48.877Z,100704.94
2019-05-21T22:39:27.861Z,100706.99
2019-05-21T22:42:05.247Z,100719.48
2019-05-21T22:44:44.196Z,100726.20
2019-05-21T22:47:21.403Z,100726.59
2019-05-21T22:49:59.707Z,100720.69
2019-05-21T22:52:38.010Z,100717.20
2019-05-21T22:55:18.000Z,100725.41
2019-05-21T22:57:55.537Z,100734.00
2019-05-21T23:00:34.193Z,100739.14
2019-05-21T23:03:11.923Z,100738.18
2019-05-21T23:05:49.955Z,100736.84
2019-05-21T23:08:29.434Z,100727.88
2019-05-21T23:11:06.807Z,100713.84
2019-05-21T23:13:44.066Z,100720.52
2019-05-21T23:16:22.903Z,100728.16
2019-05-21T23:19:01.469Z,100743.52
2019-05-21T23:21:42.909Z,100748.98
2019-05-21T23:24:22.917Z,100760.32
2019-05-21T23:27:00.592Z,100758.23
2019-05-21T23:29:38.654Z,100758.17
2019-05-21T23:32:16.510Z,100760.27
2019-05-21T23:34:55.277Z,100769.63
2019-05-21T23:37:34.785Z,100779.69
2019-05-21T23:40:14.192Z,100780.53
2019-05-21T23:42:51.853Z,100769.06
2019-05-21T23:45:29.161Z,100770.13
2019-05-21T23:48:07.592Z,100761.85
2019-05-21T23:50:45.946Z,100765.48
2019-05-21T23:53:23.648Z,100778.83
2019-05-21T23:56:00.868Z,100773.69
2019-05-21T23:58:38.830Z,100767.19
